Current Weather

Downtown Manhattan/Wall St

New York, Downtown Manhattan/Wall St (KJRB)

Report from: Tuesday, July 16, 2024 5:56 AM EDT
Current time: Tuesday, July 16, 2024 6:14 AM EDT

Nearby weather – Weather history – Daily summaries
Weather forecast

Temperature26.7°C (80.1°F)
Heat index28.8°C (83.8°F)
Dew point21.7°C (71.1°F)
Winds 3 kts (1.5 m/s, 3.5 mph) Vrb
Winds variableWinds variable
Visibility10 mi. (16.1 km)
Clouds Sky clear
Altimeter29.84 in.Hg (1010 mB)
Relative humidity74 %
Density altitude1,802 ft. (549 m)
Sea-level pressure101.0 kPa (1010 mB, 29.83 in.Hg)
Remarks Fully automated report
System requires maintenance
Automated weather observing station with precipitation discriminator
Precipitation sensor not operating
Flight conditions Visual Meteorological Conditions
Raw dataKJRB 160956Z AUTO VRB03KT 10SM CLR 27/22 A2984 RMK AO2 SLP102 T02670217 PNO $
An error has occurred. This application may no longer respond until reloaded. Reload 🗙